Terminal Aerodrome Forecast
Issued by NWS

Home | Current Version | Previous Version | Text Only | Print | Product List | Glossary On
Versions: 1 2 3 4 5 6 7 8 9 10 11 12 13 14 15 16 17 18 19 20 21 22 23 24 25 26 27 28 29 30 31 32 33 34 35
000
FTUS45 KBOU 191728
TAFAPA
TAF
KAPA 191728Z 1918/2018 36006KT P6SM FEW120
     FM191900 03007KT P6SM SCT120
     FM192200 24010KT P6SM SCT120
     FM200300 19007KT P6SM FEW120
     FM201200 24007KT P6SM FEW200=

USA.gov is the U.S. government's official web portal to all federal, state and local government web resources and services.